Lamco Airport

Jump to: basic info | weather | comments

Related pages: nearby airports | nearby navaids | notams | map

Basic information (top)

Codes: UCN GLLB
Location: lon 5.867000, lat -10.050000, elev 30 ft / 9 m msl
Status: small_airport
Scheduled airline service: no
Links: Wikipedia Mobile

Weather (top)

Current conditions for Roberts International Airport 29nm (53km) NW (rec'd 2014/09/30 21:30Z):

GLRB 302130Z 24004KT 9999 BKN013 25/24 Q1014 NOSIG

Airport forecast for Roberts International Airport 29nm (53km) NW (rec'd 2014/09/30 06:54Z):

TAF TAF GLRB 300400Z 3006/0112 23010KT 9999 BKN016 
      BECMG 3007/3009 08005KT 8000 -RA/TSRA BKN015 FEW024CB 
      TEMPO 3010/3015 25012KT 7000 TSRA SCT005 BKN014 FEW024CB

Latest comments (top)

No comments yet for Lamco Airport

More... (top)

See also NOTAMs and nearby airports and navaids, or visit the Lamco Airport page at the main OurAirports website..